KCMH/CMH METAR and TAF weather

Enter ICAO airport designator
Station Type Date Time Source
KCMH METAR 2020/07/12 04:51 UTC NOAA

KCMH 120451Z 29007KT 10SM FEW120 SCT250 24/18 A2980 RMK AO2 SLP084 T02390178 403110200


Station Type Date Time Source
KCMH Decoded METAR 2020/07/12 04:51 UTC NOAA

PORT COLUMBUS INTERNATIONAL AIRPORT, OH, United States (KCMH) 40-00N 82-53W 247M
Jul 12, 2020 - 12:51 AM EDT / 2020.07.12 0451 UTC
Wind: from the WNW (290 degrees) at 8 MPH (7 KT):0
Visibility: 10 mile(s):0
Sky conditions: partly cloudy
Temperature: 75.0 F (23.9 C)
Dew Point: 64.0 F (17.8 C)
Relative Humidity: 68%
Pressure (altimeter): 29.8 in. Hg (1009 hPa)
ob: KCMH 120451Z 29007KT 10SM FEW120 SCT250 24/18 A2980 RMK AO2 SLP084 T02390178 403110200
cycle: 5

Station Type Date Time Source
KCMH TAF 2020/07/12 06:45 UTC NOAA

TAF KCMH 120542Z 1206/1306 26005KT P6SM FEW120 SCT250
FM121000 22003KT P6SM SCT050
FM121700 VRB04KT P6SM VCSH BKN050
FM122000 06005KT P6SM VCSH SCT050 BKN100
FM122200 05004KT P6SM FEW050 BKN120
FM130000 03004KT P6SM FEW050

Example: see airport list